Time;durP1;ratioP1;P1;durP2;ratioP2;P2;SDS_P1;SDS_P2;PMS_P1;PMS_P2;Temp;Humidity;BMP_temperature;BMP_pressure;BME280_temperature;BME280_humidity;BME280_pressure;Samples;Min_cycle;Max_cycle;Signal;HPM_P1;HPM_P2
2024/04/03 00:00:57;;;;;;;10.60;6.30;;;;;;;;;;5010482;28;20049;-59
2024/04/03 00:03:22;;;;;;;10.38;6.13;;;;;;;;;;5011556;28;20022;-58
2024/04/03 00:05:48;;;;;;;10.50;6.20;;;;;;;;;;5010299;28;20022;-60
2024/04/03 00:08:14;;;;;;;10.70;6.30;;;;;;;;;;5011362;28;20045;-56
2024/04/03 00:10:40;;;;;;;9.88;5.80;;;;;;;;;;5011514;28;20030;-57
2024/04/03 00:13:07;;;;;;;10.45;6.13;;;;;;;;;;5011308;28;20541;-58
2024/04/03 00:15:33;;;;;;;10.20;6.03;;;;;;;;;;5011444;28;20061;-59
2024/04/03 00:17:59;;;;;;;10.13;5.95;;;;;;;;;;5011698;28;20119;-57
2024/04/03 00:20:25;;;;;;;10.27;6.07;;;;;;;;;;5011690;28;20026;-57
2024/04/03 00:22:51;;;;;;;10.40;6.10;;;;;;;;;;5010115;28;20391;-58
2024/04/03 00:25:20;;;;;;;10.60;6.30;;;;;;;;;;5011469;28;20038;-55
2024/04/03 00:27:46;;;;;;;10.30;6.10;;;;;;;;;;5009751;28;20033;-60
2024/04/03 00:30:12;;;;;;;10.40;6.10;;;;;;;;;;5010777;28;20510;-58
2024/04/03 00:32:38;;;;;;;10.57;6.25;;;;;;;;;;5011130;28;20120;-59
2024/04/03 00:35:05;;;;;;;10.07;5.95;;;;;;;;;;5011091;28;20124;-59
2024/04/03 00:37:33;;;;;;;9.82;5.80;;;;;;;;;;5011084;28;20018;-57
2024/04/03 00:39:59;;;;;;;9.93;5.90;;;;;;;;;;5011093;28;20463;-57
2024/04/03 00:42:25;;;;;;;9.75;5.80;;;;;;;;;;5010912;28;20105;-55
2024/04/03 00:44:51;;;;;;;9.68;5.75;;;;;;;;;;5011460;28;20030;-58
2024/04/03 00:47:18;;;;;;;10.18;6.03;;;;;;;;;;5010791;28;20396;-58
2024/04/03 00:49:45;;;;;;;10.27;6.07;;;;;;;;;;5009297;28;20037;-58
2024/04/03 00:52:14;;;;;;;10.70;6.32;;;;;;;;;;5010751;28;20100;-58
2024/04/03 00:54:43;;;;;;;12.48;7.30;;;;;;;;;;5012405;28;20104;-57
2024/04/03 00:57:09;;;;;;;13.32;7.90;;;;;;;;;;5015625;28;20300;-55
2024/04/03 00:59:35;;;;;;;13.02;7.70;;;;;;;;;;5014244;28;20030;-58
2024/04/03 01:02:02;;;;;;;13.05;7.68;;;;;;;;;;5011844;28;20109;-57
2024/04/03 01:04:28;;;;;;;13.15;7.75;;;;;;;;;;5011200;28;20030;-56
2024/04/03 01:06:54;;;;;;;13.43;8.20;;;;;;;;;;5011011;28;20022;-57
2024/04/03 01:09:20;;;;;;;13.65;9.02;;;;;;;;;;5010325;28;20029;-58
2024/04/03 01:11:46;;;;;;;14.10;10.55;;;;;;;;;;5010177;28;20077;-57
2024/04/03 01:14:13;;;;;;;14.40;11.30;;;;;;;;;;5010393;28;20364;-57
2024/04/03 01:16:42;;;;;;;14.50;11.50;;;;;;;;;;5009811;28;20101;-57
2024/04/03 01:19:08;;;;;;;14.50;11.50;;;;;;;;;;5010318;28;20093;-57
2024/04/03 01:21:34;;;;;;;14.57;11.73;;;;;;;;;;5010427;28;20057;-55
2024/04/03 01:24:00;;;;;;;14.60;11.77;;;;;;;;;;5010186;28;20025;-56
2024/04/03 01:26:27;;;;;;;15.98;14.27;;;;;;;;;;5010287;28;20543;-58
2024/04/03 01:28:53;;;;;;;16.35;14.65;;;;;;;;;;5008854;28;20029;-57
2024/04/03 01:31:19;;;;;;;16.02;14.32;;;;;;;;;;5010245;28;20022;-53
2024/04/03 01:33:45;;;;;;;16.08;14.38;;;;;;;;;;5010080;28;20400;-56
2024/04/03 01:36:11;;;;;;;16.13;14.43;;;;;;;;;;5008993;28;20030;-55
2024/04/03 01:38:37;;;;;;;16.20;14.50;;;;;;;;;;5010492;28;20026;-55
2024/04/03 01:41:03;;;;;;;16.30;14.60;;;;;;;;;;5010232;28;20041;-57
2024/04/03 01:43:29;;;;;;;16.35;14.65;;;;;;;;;;5010144;28;20026;-55
2024/04/03 01:45:56;;;;;;;16.25;14.55;;;;;;;;;;5010033;28;20129;-56
2024/04/03 01:48:22;;;;;;;16.02;14.32;;;;;;;;;;5009993;28;20042;-58
2024/04/03 01:50:48;;;;;;;15.88;14.18;;;;;;;;;;5009982;28;20036;-58
2024/04/03 01:53:14;;;;;;;15.88;14.18;;;;;;;;;;5009874;28;20026;-55
2024/04/03 01:55:40;;;;;;;15.68;13.98;;;;;;;;;;5009789;28;20076;-57
2024/04/03 01:58:06;;;;;;;15.70;14.00;;;;;;;;;;5009055;28;20466;-57
2024/04/03 02:00:31;;;;;;;15.35;13.73;;;;;;;;;;5009909;28;20053;-57
2024/04/03 02:02:57;;;;;;;15.68;13.98;;;;;;;;;;5009681;28;20373;-56
2024/04/03 02:05:23;;;;;;;20.15;18.35;;;;;;;;;;5009555;28;20092;-58
2024/04/03 02:07:50;;;;;;;21.55;19.65;;;;;;;;;;5009481;28;20057;-57
2024/04/03 02:10:16;;;;;;;21.70;19.80;;;;;;;;;;5009571;28;20046;-59
2024/04/03 02:12:42;;;;;;;20.90;19.10;;;;;;;;;;5009363;28;20560;-55
2024/04/03 02:15:08;;;;;;;22.92;21.02;;;;;;;;;;5009700;28;20022;-58
2024/04/03 02:17:34;;;;;;;23.85;21.88;;;;;;;;;;5008285;28;20407;-57
2024/04/03 02:20:00;;;;;;;22.45;20.55;;;;;;;;;;5009711;28;20029;-56
2024/04/03 02:22:26;;;;;;;22.35;20.45;;;;;;;;;;5008213;28;20052;-57
2024/04/03 02:24:52;;;;;;;23.88;21.98;;;;;;;;;;5009589;28;20026;-58
2024/04/03 02:27:18;;;;;;;22.95;21.05;;;;;;;;;;5009458;28;20105;-55
2024/04/03 02:29:44;;;;;;;23.50;21.60;;;;;;;;;;5011012;28;20392;-55
2024/04/03 02:32:10;;;;;;;23.75;21.85;;;;;;;;;;5013188;28;20112;-58
2024/04/03 02:34:36;;;;;;;24.73;22.73;;;;;;;;;;5013109;28;20033;-58
2024/04/03 02:37:02;;;;;;;25.25;23.25;;;;;;;;;;5013393;28;20385;-58
2024/04/03 02:39:30;;;;;;;24.67;22.67;;;;;;;;;;5011571;28;20066;-58
2024/04/03 02:41:56;;;;;;;25.20;23.20;;;;;;;;;;5013253;28;20038;-59
2024/04/03 02:44:22;;;;;;;24.75;22.75;;;;;;;;;;5013169;28;20034;-56
2024/04/03 02:46:48;;;;;;;24.60;22.60;;;;;;;;;;5013307;28;20028;-59
2024/04/03 02:49:14;;;;;;;24.83;22.83;;;;;;;;;;5012002;28;20112;-56
2024/04/03 02:51:40;;;;;;;28.23;26.02;;;;;;;;;;5013274;28;20053;-59
2024/04/03 02:54:06;;;;;;;28.05;25.95;;;;;;;;;;5013256;28;20063;-58
2024/04/03 02:56:32;;;;;;;28.85;26.65;;;;;;;;;;5012022;28;20141;-58
2024/04/03 02:58:58;;;;;;;26.80;24.70;;;;;;;;;;5013268;28;20616;-56
2024/04/03 03:01:24;;;;;;;26.80;24.70;;;;;;;;;;5013335;28;20022;-57
2024/04/03 03:03:50;;;;;;;26.83;24.73;;;;;;;;;;5012778;28;20519;-58
2024/04/03 03:06:16;;;;;;;27.42;25.33;;;;;;;;;;5013064;28;20109;-57
2024/04/03 03:08:42;;;;;;;28.10;26.00;;;;;;;;;;5012732;28;20499;-57
2024/04/03 03:11:08;;;;;;;26.98;24.88;;;;;;;;;;5012635;28;20037;-56
2024/04/03 03:13:34;;;;;;;27.25;25.15;;;;;;;;;;5012711;28;20384;-56
2024/04/03 03:16:01;;;;;;;27.35;25.25;;;;;;;;;;5012812;28;20033;-53
2024/04/03 03:18:33;;;;;;;27.08;24.98;;;;;;;;;;5012643;28;20540;-57
2024/04/03 03:20:59;;;;;;;27.00;24.90;;;;;;;;;;5012449;28;20472;-57
2024/04/03 03:23:25;;;;;;;26.40;24.30;;;;;;;;;;5012097;28;20638;-55
2024/04/03 03:25:51;;;;;;;26.30;24.20;;;;;;;;;;5012194;28;20095;-56
2024/04/03 03:28:18;;;;;;;26.35;24.25;;;;;;;;;;5012395;28;20110;-57
2024/04/03 03:30:50;;;;;;;26.00;23.90;;;;;;;;;;5012264;28;20181;-57
2024/04/03 03:33:16;;;;;;;26.52;24.42;;;;;;;;;;5012090;28;20473;-57
2024/04/03 03:35:42;;;;;;;27.40;25.30;;;;;;;;;;5012359;28;20113;-57
2024/04/03 03:38:08;;;;;;;26.73;24.63;;;;;;;;;;5012219;28;20069;-54
2024/04/03 03:40:38;;;;;;;27.08;24.98;;;;;;;;;;5014126;28;20054;-55
2024/04/03 03:43:04;;;;;;;26.45;24.35;;;;;;;;;;5018251;28;20033;-58
2024/04/03 03:45:30;;;;;;;27.42;25.33;;;;;;;;;;5018166;28;20084;-56
2024/04/03 03:47:55;;;;;;;27.40;25.30;;;;;;;;;;5013188;28;20033;-58
2024/04/03 03:53:06;;;;;;;26.85;24.75;;;;;;;;;;5012129;28;20450;-56
2024/04/03 03:55:32;;;;;;;27.20;25.10;;;;;;;;;;5011949;28;20026;-58
2024/04/03 03:57:59;;;;;;;27.00;24.90;;;;;;;;;;5012054;28;20072;-57
2024/04/03 04:00:25;;;;;;;26.73;24.63;;;;;;;;;;5010842;28;20057;-56
2024/04/03 04:02:51;;;;;;;26.95;24.85;;;;;;;;;;5011933;28;20026;-58
2024/04/03 04:05:18;;;;;;;27.25;25.15;;;;;;;;;;5011953;28;20083;-55
2024/04/03 04:07:44;;;;;;;26.52;24.42;;;;;;;;;;5012260;28;20082;-54
2024/04/03 04:10:10;;;;;;;26.98;24.88;;;;;;;;;;5011706;28;20060;-57
2024/04/03 04:12:36;;;;;;;27.05;24.95;;;;;;;;;;5011594;28;20061;-56
2024/04/03 04:15:02;;;;;;;27.70;25.60;;;;;;;;;;5011057;28;20036;-58
2024/04/03 04:17:28;;;;;;;26.95;24.85;;;;;;;;;;5011508;28;20110;-58
2024/04/03 04:19:54;;;;;;;26.73;24.63;;;;;;;;;;5011577;28;20033;-56
2024/04/03 04:22:20;;;;;;;25.83;23.83;;;;;;;;;;5011132;28;20030;-57
2024/04/03 04:24:48;;;;;;;26.58;24.48;;;;;;;;;;5011279;28;20033;-55
2024/04/03 04:27:14;;;;;;;26.70;24.60;;;;;;;;;;5011213;28;20111;-59
2024/04/03 04:29:40;;;;;;;26.10;24.00;;;;;;;;;;5011081;28;20049;-57
2024/04/03 04:32:10;;;;;;;25.95;23.85;;;;;;;;;;5011001;28;20480;-58
2024/04/03 04:34:39;;;;;;;26.83;24.73;;;;;;;;;;5011252;28;20488;-58
2024/04/03 04:37:05;;;;;;;26.92;24.83;;;;;;;;;;5010877;28;20034;-58
2024/04/03 04:39:31;;;;;;;26.85;24.75;;;;;;;;;;5010896;28;20480;-59
2024/04/03 04:41:57;;;;;;;27.88;25.67;;;;;;;;;;5010968;28;20032;-57
2024/04/03 04:44:23;;;;;;;27.75;25.55;;;;;;;;;;5011034;28;20493;-57
2024/04/03 04:46:50;;;;;;;26.73;24.63;;;;;;;;;;5011168;28;20041;-54
2024/04/03 04:49:16;;;;;;;27.35;25.25;;;;;;;;;;5011010;28;20025;-55
2024/04/03 04:51:45;;;;;;;27.90;25.70;;;;;;;;;;5009912;28;20026;-58
2024/04/03 04:54:11;;;;;;;28.27;26.08;;;;;;;;;;5010559;28;20058;-58
2024/04/03 04:56:38;;;;;;;27.80;25.60;;;;;;;;;;5010535;28;20025;-56
2024/04/03 04:59:04;;;;;;;28.05;25.85;;;;;;;;;;5009798;28;20052;-56
2024/04/03 05:01:33;;;;;;;28.75;26.55;;;;;;;;;;5009182;28;20070;-58
2024/04/03 05:03:59;;;;;;;28.20;26.00;;;;;;;;;;5010575;28;20014;-55
2024/04/03 05:06:25;;;;;;;27.88;25.67;;;;;;;;;;5009377;28;20018;-57
2024/04/03 05:08:51;;;;;;;28.38;26.17;;;;;;;;;;5010355;28;20069;-57
2024/04/03 05:11:17;;;;;;;28.65;26.45;;;;;;;;;;5010314;28;20037;-57
2024/04/03 05:13:43;;;;;;;28.30;26.10;;;;;;;;;;5010081;28;20044;-57
2024/04/03 05:16:11;;;;;;;27.90;25.70;;;;;;;;;;5010265;28;20152;-57
2024/04/03 05:18:38;;;;;;;28.10;25.90;;;;;;;;;;5010364;28;20021;-53
2024/04/03 05:21:04;;;;;;;27.40;25.30;;;;;;;;;;5010288;28;20032;-54
2024/04/03 05:23:30;;;;;;;28.40;26.20;;;;;;;;;;5008778;28;20598;-55
2024/04/03 05:25:57;;;;;;;28.15;25.95;;;;;;;;;;5008661;28;20115;-53
2024/04/03 05:28:25;;;;;;;28.33;26.13;;;;;;;;;;5008998;28;20488;-56
2024/04/03 05:30:51;;;;;;;28.30;26.10;;;;;;;;;;5010771;28;20032;-56
2024/04/03 05:33:17;;;;;;;28.15;25.95;;;;;;;;;;5010287;28;20026;-57
2024/04/03 05:35:43;;;;;;;27.83;25.67;;;;;;;;;;5007807;28;20080;-56
2024/04/03 05:38:09;;;;;;;27.88;25.67;;;;;;;;;;5009612;28;20045;-53
2024/04/03 05:40:35;;;;;;;27.70;25.50;;;;;;;;;;5010813;28;20101;-52
2024/04/03 05:43:01;;;;;;;28.08;25.88;;;;;;;;;;5008751;28;20448;-61
2024/04/03 05:45:27;;;;;;;28.00;25.80;;;;;;;;;;5009567;28;20026;-57
2024/04/03 05:47:53;;;;;;;28.20;26.00;;;;;;;;;;5009842;28;20113;-57
2024/04/03 05:50:19;;;;;;;28.45;26.25;;;;;;;;;;5009642;28;20095;-57
2024/04/03 05:52:45;;;;;;;28.50;26.30;;;;;;;;;;5009314;28;20034;-57
2024/04/03 05:55:13;;;;;;;28.33;26.13;;;;;;;;;;5010153;28;20093;-58
2024/04/03 05:57:39;;;;;;;28.77;26.57;;;;;;;;;;5010314;28;20071;-58
2024/04/03 06:00:06;;;;;;;29.10;26.90;;;;;;;;;;5009627;28;20269;-55
2024/04/03 06:02:32;;;;;;;28.63;26.42;;;;;;;;;;5009397;28;20022;-56
2024/04/03 06:04:58;;;;;;;29.15;26.90;;;;;;;;;;5008044;28;20141;-58
2024/04/03 06:07:24;;;;;;;29.27;27.08;;;;;;;;;;5009420;28;20503;-58
2024/04/03 06:09:51;;;;;;;29.38;27.10;;;;;;;;;;5009309;28;20038;-59
2024/04/03 06:12:17;;;;;;;29.25;27.05;;;;;;;;;;5009346;28;20527;-58
2024/04/03 06:14:43;;;;;;;28.80;26.60;;;;;;;;;;5009449;28;20121;-58
2024/04/03 06:17:09;;;;;;;28.67;26.48;;;;;;;;;;5009327;28;20030;-56
2024/04/03 06:19:35;;;;;;;28.42;26.23;;;;;;;;;;5040838;28;20026;-56
2024/04/03 06:22:00;;;;;;;28.45;26.25;;;;;;;;;;5009593;28;20052;-57
2024/04/03 06:24:26;;;;;;;28.30;26.10;;;;;;;;;;5008902;28;20026;-58
2024/04/03 06:26:52;;;;;;;28.50;26.30;;;;;;;;;;5014998;28;20072;-59
2024/04/03 06:29:19;;;;;;;28.30;26.10;;;;;;;;;;5015438;28;20078;-58
2024/04/03 06:31:47;;;;;;;28.15;25.95;;;;;;;;;;5045205;28;20026;-57
2024/04/03 06:34:13;;;;;;;28.52;26.33;;;;;;;;;;5009735;28;20097;-58
2024/04/03 06:36:39;;;;;;;28.50;26.30;;;;;;;;;;5009010;28;20038;-58
2024/04/03 06:39:06;;;;;;;28.20;26.00;;;;;;;;;;5008295;28;20026;-58
2024/04/03 06:41:32;;;;;;;28.00;25.80;;;;;;;;;;5008107;28;20420;-58
2024/04/03 06:43:58;;;;;;;28.10;25.90;;;;;;;;;;5009958;28;20030;-59
2024/04/03 06:46:24;;;;;;;27.60;25.40;;;;;;;;;;5010218;28;20406;-55
2024/04/03 06:48:50;;;;;;;27.85;25.65;;;;;;;;;;5009448;28;20166;-58
2024/04/03 06:51:17;;;;;;;27.73;25.52;;;;;;;;;;5009064;28;20030;-57
2024/04/03 06:53:43;;;;;;;27.75;25.55;;;;;;;;;;5008340;28;20108;-57
2024/04/03 06:56:09;;;;;;;27.52;25.33;;;;;;;;;;5008791;28;20105;-56
2024/04/03 06:58:41;;;;;;;27.38;25.17;;;;;;;;;;5008480;28;20033;-57
2024/04/03 07:01:09;;;;;;;27.23;25.02;;;;;;;;;;5008849;28;20045;-59
2024/04/03 07:03:35;;;;;;;27.40;25.20;;;;;;;;;;5009150;28;20026;-57
2024/04/03 07:06:01;;;;;;;27.13;25.02;;;;;;;;;;5007806;28;20022;-56
2024/04/03 07:08:28;;;;;;;27.02;24.92;;;;;;;;;;5008742;28;20030;-55
2024/04/03 07:10:54;;;;;;;26.73;24.63;;;;;;;;;;5006947;28;20044;-57
2024/04/03 07:13:23;;;;;;;26.60;24.50;;;;;;;;;;5007392;28;20030;-58
2024/04/03 07:15:49;;;;;;;26.20;24.10;;;;;;;;;;5010675;28;20488;-58
2024/04/03 07:18:16;;;;;;;25.92;23.83;;;;;;;;;;5012526;28;20030;-58
2024/04/03 07:20:42;;;;;;;25.38;23.38;;;;;;;;;;5012235;28;20038;-56
2024/04/03 07:23:08;;;;;;;24.08;22.08;;;;;;;;;;5012442;28;20452;-56
2024/04/03 07:25:36;;;;;;;22.85;20.95;;;;;;;;;;5012537;28;20057;-57
2024/04/03 07:28:11;;;;;;;22.67;20.77;;;;;;;;;;5012214;28;20078;-58
2024/04/03 07:30:39;;;;;;;22.75;20.85;;;;;;;;;;5011980;28;20112;-56
2024/04/03 07:33:05;;;;;;;23.20;21.30;;;;;;;;;;5011721;28;20097;-58
2024/04/03 07:35:31;;;;;;;22.63;20.73;;;;;;;;;;5012331;28;20034;-58
2024/04/03 07:37:58;;;;;;;22.58;20.67;;;;;;;;;;5011322;28;20030;-56
2024/04/03 07:40:24;;;;;;;22.23;20.33;;;;;;;;;;5012085;28;20026;-57
2024/04/03 07:42:50;;;;;;;22.52;20.63;;;;;;;;;;5011807;28;20045;-55
2024/04/03 07:45:16;;;;;;;22.17;20.27;;;;;;;;;;5011646;28;20018;-59
2024/04/03 07:47:42;;;;;;;22.30;20.40;;;;;;;;;;5011419;28;20049;-57
2024/04/03 07:50:08;;;;;;;21.98;20.08;;;;;;;;;;5012015;28;20499;-58
2024/04/03 07:52:38;;;;;;;21.88;19.98;;;;;;;;;;5011733;28;20157;-58
2024/04/03 07:55:11;;;;;;;21.60;19.70;;;;;;;;;;5012030;28;20026;-56
2024/04/03 07:57:38;;;;;;;21.55;19.65;;;;;;;;;;5012386;28;20470;-57
2024/04/03 08:00:05;;;;;;;21.35;19.45;;;;;;;;;;5012211;28;20100;-59
2024/04/03 08:02:35;;;;;;;21.85;19.95;;;;;;;;;;5011941;28;20028;-57
2024/04/03 08:05:01;;;;;;;21.48;19.58;;;;;;;;;;5012940;28;20077;-57
2024/04/03 08:07:28;;;;;;;21.98;20.08;;;;;;;;;;5011711;28;20510;-57
2024/04/03 08:09:54;;;;;;;21.85;19.95;;;;;;;;;;5011416;28;20040;-54
2024/04/03 08:12:20;;;;;;;20.73;18.92;;;;;;;;;;5011558;28;20075;-56
2024/04/03 08:14:46;;;;;;;20.45;18.65;;;;;;;;;;5011371;28;20084;-58
2024/04/03 08:17:12;;;;;;;20.08;18.27;;;;;;;;;;5011459;28;20021;-59
2024/04/03 08:19:38;;;;;;;19.92;18.13;;;;;;;;;;5011224;28;20109;-55
2024/04/03 08:22:06;;;;;;;19.08;17.27;;;;;;;;;;5010990;28;20076;-55
2024/04/03 08:24:33;;;;;;;18.77;16.98;;;;;;;;;;5011113;28;20032;-57
2024/04/03 08:26:59;;;;;;;18.95;17.15;;;;;;;;;;5009747;28;20037;-57
2024/04/03 08:29:25;;;;;;;18.58;16.77;;;;;;;;;;5010982;28;20022;-60
2024/04/03 08:31:51;;;;;;;18.17;16.48;;;;;;;;;;5010988;28;20029;-57
2024/04/03 08:34:18;;;;;;;18.38;16.60;;;;;;;;;;5010014;28;20045;-58
2024/04/03 08:36:44;;;;;;;18.38;16.58;;;;;;;;;;5010673;28;20021;-59
2024/04/03 08:39:10;;;;;;;18.63;16.83;;;;;;;;;;5011139;28;20078;-58
2024/04/03 08:41:36;;;;;;;18.58;16.77;;;;;;;;;;5009526;28;20081;-57
2024/04/03 08:44:02;;;;;;;18.38;16.58;;;;;;;;;;5009291;28;20045;-55
2024/04/03 08:46:31;;;;;;;18.88;17.08;;;;;;;;;;5010619;28;20022;-58
2024/04/03 08:48:57;;;;;;;17.58;15.88;;;;;;;;;;5010626;28;20033;-58
2024/04/03 08:51:28;;;;;;;17.88;16.17;;;;;;;;;;5011767;28;20094;-59
2024/04/03 08:53:58;;;;;;;18.48;16.67;;;;;;;;;;5009084;28;20072;-58
2024/04/03 08:56:24;;;;;;;17.55;15.85;;;;;;;;;;5010609;28;20036;-59
2024/04/03 08:58:51;;;;;;;17.48;15.77;;;;;;;;;;5010655;28;20034;-52
2024/04/03 09:01:17;;;;;;;17.80;16.10;;;;;;;;;;5010771;28;20097;-56
2024/04/03 09:03:44;;;;;;;17.83;16.13;;;;;;;;;;5010251;28;20033;-55
2024/04/03 09:06:11;;;;;;;17.63;15.93;;;;;;;;;;5010438;28;20030;-55
2024/04/03 09:08:41;;;;;;;17.75;16.05;;;;;;;;;;5008826;28;20084;-49
2024/04/03 09:11:08;;;;;;;18.00;16.30;;;;;;;;;;5010700;28;20022;-50
2024/04/03 09:13:34;;;;;;;17.75;16.05;;;;;;;;;;5010959;28;20099;-51
2024/04/03 09:16:01;;;;;;;17.67;15.98;;;;;;;;;;5011426;28;20042;-49
2024/04/03 09:18:27;;;;;;;17.65;15.95;;;;;;;;;;5010634;28;20022;-49
2024/04/03 09:20:54;;;;;;;17.27;15.57;;;;;;;;;;5010103;28;20566;-53
2024/04/03 09:23:21;;;;;;;16.85;15.15;;;;;;;;;;5009428;28;20018;-54
2024/04/03 09:25:48;;;;;;;16.63;14.93;;;;;;;;;;5010512;28;20030;-54
2024/04/03 09:28:14;;;;;;;16.83;15.13;;;;;;;;;;5009859;28;20026;-53
2024/04/03 09:30:41;;;;;;;17.13;15.43;;;;;;;;;;5009692;28;20479;-55
2024/04/03 09:33:07;;;;;;;17.27;15.57;;;;;;;;;;5009819;28;20041;-51
2024/04/03 09:35:34;;;;;;;17.17;15.48;;;;;;;;;;5009913;28;20026;-55
2024/04/03 09:38:01;;;;;;;17.30;15.60;;;;;;;;;;5008553;28;20033;-55
2024/04/03 09:40:28;;;;;;;17.02;15.32;;;;;;;;;;5009537;28;20022;-56
2024/04/03 09:42:57;;;;;;;16.92;15.23;;;;;;;;;;5009272;28;20033;-54
2024/04/03 09:45:23;;;;;;;;;;;;;;;;;;5008732;28;20022;-53
2024/04/03 09:47:54;;;;;;;16.50;14.80;;;;;;;;;;5009544;28;19959;-57
2024/04/03 09:50:20;;;;;;;16.58;14.88;;;;;;;;;;5009543;28;20026;-57
2024/04/03 09:52:47;;;;;;;16.70;15.00;;;;;;;;;;5009169;28;20038;-56
2024/04/03 09:55:13;;;;;;;16.40;14.70;;;;;;;;;;5008850;28;20033;-58
2024/04/03 09:57:40;;;;;;;16.45;14.75;;;;;;;;;;5008384;28;20089;-59
2024/04/03 10:00:06;;;;;;;16.13;14.43;;;;;;;;;;5009814;28;20385;-57
2024/04/03 10:02:32;;;;;;;16.25;14.55;;;;;;;;;;5008048;28;20117;-56
2024/04/03 10:04:58;;;;;;;16.25;14.55;;;;;;;;;;5009761;28;20022;-58
2024/04/03 10:07:27;;;;;;;16.48;14.77;;;;;;;;;;5009076;28;20142;-57
2024/04/03 10:09:54;;;;;;;16.05;14.35;;;;;;;;;;5009693;28;20140;-56
2024/04/03 10:12:23;;;;;;;16.20;14.50;;;;;;;;;;5008490;28;20034;-57
2024/04/03 10:14:56;;;;;;;17.98;16.27;;;;;;;;;;5009409;28;20033;-57
2024/04/03 10:17:23;;;;;;;18.27;16.48;;;;;;;;;;5009610;28;20033;-56
2024/04/03 10:19:49;;;;;;;19.08;17.27;;;;;;;;;;5008587;28;20033;-54
2024/04/03 10:22:17;;;;;;;18.75;16.95;;;;;;;;;;5009313;28;20018;-55
2024/04/03 10:24:43;;;;;;;19.88;18.08;;;;;;;;;;5009235;28;20092;-54
2024/04/03 10:27:09;;;;;;;19.90;18.10;;;;;;;;;;5009277;28;20037;-57
2024/04/03 10:29:36;;;;;;;20.60;18.80;;;;;;;;;;5007716;28;20032;-58
2024/04/03 10:32:02;;;;;;;21.08;19.17;;;;;;;;;;5009696;28;20049;-58
2024/04/03 10:34:28;;;;;;;20.65;18.85;;;;;;;;;;5009721;28;20049;-56
2024/04/03 10:36:54;;;;;;;21.60;19.70;;;;;;;;;;5009016;28;20090;-56
2024/04/03 10:39:21;;;;;;;20.83;19.02;;;;;;;;;;5009061;28;20022;-57
2024/04/03 10:41:58;;;;;;;20.88;19.08;;;;;;;;;;5009388;28;20083;-56
2024/04/03 10:44:24;;;;;;;20.55;18.75;;;;;;;;;;5008911;28;20022;-54
2024/04/03 10:46:50;;;;;;;20.80;19.00;;;;;;;;;;5009251;28;20026;-56
2024/04/03 10:49:16;;;;;;;20.67;18.88;;;;;;;;;;5009303;28;20053;-57
2024/04/03 10:51:42;;;;;;;20.33;18.52;;;;;;;;;;5011088;28;20025;-57
2024/04/03 10:54:10;;;;;;;20.30;18.50;;;;;;;;;;5013497;28;20045;-58
2024/04/03 10:56:36;;;;;;;19.65;17.85;;;;;;;;;;5012792;28;20073;-53
2024/04/03 10:59:03;;;;;;;19.48;17.67;;;;;;;;;;5012034;28;20452;-57
2024/04/03 11:01:32;;;;;;;19.88;18.08;;;;;;;;;;5013267;28;20079;-56
2024/04/03 11:04:00;;;;;;;19.70;17.90;;;;;;;;;;5012458;28;20484;-56
2024/04/03 11:06:26;;;;;;;20.02;18.23;;;;;;;;;;5012669;28;20049;-56
2024/04/03 11:08:52;;;;;;;19.73;17.92;;;;;;;;;;5012746;28;20042;-57
2024/04/03 11:11:18;;;;;;;20.35;18.45;;;;;;;;;;5012322;28;20056;-56
2024/04/03 11:13:48;;;;;;;19.75;17.95;;;;;;;;;;5012445;28;20034;-57
2024/04/03 11:16:14;;;;;;;20.25;18.45;;;;;;;;;;5012639;28;20037;-57
2024/04/03 11:18:43;;;;;;;19.15;17.35;;;;;;;;;;5012452;28;20049;-58
2024/04/03 11:21:09;;;;;;;19.30;17.50;;;;;;;;;;5011208;28;20145;-54
2024/04/03 11:23:37;;;;;;;19.13;17.33;;;;;;;;;;5012417;28;20391;-56
2024/04/03 11:26:04;;;;;;;20.08;18.27;;;;;;;;;;5011224;28;20028;-57
2024/04/03 11:28:29;;;;;;;19.90;18.10;;;;;;;;;;5012544;28;20084;-57
2024/04/03 11:30:55;;;;;;;20.25;18.42;;;;;;;;;;5012884;28;20037;-55
2024/04/03 11:33:21;;;;;;;20.48;18.58;;;;;;;;;;5012565;28;20125;-55
2024/04/03 11:35:47;;;;;;;19.95;18.15;;;;;;;;;;5011077;28;20113;-55
2024/04/03 11:38:13;;;;;;;19.77;17.98;;;;;;;;;;5011131;28;20038;-57
2024/04/03 11:40:39;;;;;;;19.85;18.05;;;;;;;;;;5012251;28;20030;-54
2024/04/03 11:43:05;;;;;;;19.98;18.17;;;;;;;;;;5012181;28;20106;-56
2024/04/03 11:45:32;;;;;;;19.60;17.80;;;;;;;;;;5011573;28;20432;-57
2024/04/03 11:47:58;;;;;;;19.25;17.45;;;;;;;;;;5012305;28;20030;-58
2024/04/03 11:50:24;;;;;;;19.40;17.60;;;;;;;;;;5010868;28;20120;-58
2024/04/03 11:52:50;;;;;;;19.30;17.50;;;;;;;;;;5011728;28;20030;-57
2024/04/03 11:55:16;;;;;;;19.20;17.40;;;;;;;;;;5011752;28;20495;-57
2024/04/03 11:57:42;;;;;;;18.95;17.15;;;;;;;;;;5012171;28;20022;-57
2024/04/03 12:00:11;;;;;;;19.15;17.35;;;;;;;;;;5013219;28;20539;-56
2024/04/03 12:02:41;;;;;;;19.45;17.65;;;;;;;;;;5015035;28;20026;-58
2024/04/03 12:05:07;;;;;;;19.25;17.45;;;;;;;;;;5012201;28;20029;-54
2024/04/03 12:07:35;;;;;;;18.98;17.17;;;;;;;;;;5011495;28;20046;-56
2024/04/03 12:10:06;;;;;;;18.77;16.97;;;;;;;;;;5010950;28;20030;-57
2024/04/03 12:12:32;;;;;;;19.27;17.48;;;;;;;;;;5011048;28;20703;-53
2024/04/03 12:14:58;;;;;;;18.77;16.98;;;;;;;;;;5010854;28;20111;-57
2024/04/03 12:17:24;;;;;;;18.75;16.95;;;;;;;;;;5010895;28;20045;-54
2024/04/03 12:22:23;;;;;;;18.65;16.85;;;;;;;;;;5011289;28;20384;-57
2024/04/03 12:24:50;;;;;;;18.55;16.75;;;;;;;;;;5010740;28;20022;-57
2024/04/03 12:27:16;;;;;;;19.27;17.48;;;;;;;;;;5011312;28;20006;-59
2024/04/03 12:29:42;;;;;;;19.63;17.83;;;;;;;;;;5010757;28;20080;-57
2024/04/03 12:32:08;;;;;;;19.85;18.05;;;;;;;;;;5010594;28;20532;-55
2024/04/03 12:34:34;;;;;;;19.42;17.63;;;;;;;;;;5009433;28;20018;-51
2024/04/03 12:37:00;;;;;;;19.92;18.13;;;;;;;;;;5011067;28;20026;-54
2024/04/03 12:39:26;;;;;;;19.42;17.63;;;;;;;;;;5011413;28;20364;-54
2024/04/03 12:41:52;;;;;;;19.02;17.23;;;;;;;;;;5010670;28;20329;-56
2024/04/03 12:44:18;;;;;;;18.88;17.08;;;;;;;;;;5009635;28;20124;-55
2024/04/03 12:46:45;;;;;;;18.80;17.00;;;;;;;;;;5010619;28;20550;-53
2024/04/03 12:49:11;;;;;;;18.75;16.95;;;;;;;;;;5010436;28;20032;-58
2024/04/03 12:51:37;;;;;;;18.10;16.40;;;;;;;;;;5010729;28;20388;-63
2024/04/03 12:54:03;;;;;;;17.77;16.08;;;;;;;;;;5010422;28;20037;-62
2024/04/03 12:56:29;;;;;;;17.73;16.02;;;;;;;;;;5011687;28;20098;-57
2024/04/03 12:58:55;;;;;;;17.27;15.57;;;;;;;;;;5009261;28;20072;-53
2024/04/03 13:01:21;;;;;;;16.95;15.25;;;;;;;;;;5010885;28;20121;-57
2024/04/03 13:03:52;;;;;;;16.85;15.15;;;;;;;;;;5011261;28;20022;-57
2024/04/03 13:06:21;;;;;;;15.13;13.25;;;;;;;;;;5010463;28;20022;-53
2024/04/03 13:08:47;;;;;;;14.80;12.25;;;;;;;;;;5009909;28;20109;-55
2024/04/03 13:11:13;;;;;;;14.68;11.80;;;;;;;;;;5010202;28;20098;-53
2024/04/03 13:13:39;;;;;;;14.52;11.30;;;;;;;;;;5009800;28;20161;-59
2024/04/03 13:16:05;;;;;;;14.52;11.48;;;;;;;;;;5010409;28;20033;-54
2024/04/03 13:18:31;;;;;;;14.40;11.10;;;;;;;;;;5010268;28;20088;-56
2024/04/03 13:20:57;;;;;;;14.20;10.60;;;;;;;;;;5011491;28;20116;-57
2024/04/03 13:23:23;;;;;;;14.10;10.30;;;;;;;;;;5011181;28;20014;-56
2024/04/03 13:25:51;;;;;;;13.90;9.60;;;;;;;;;;5011032;28;20017;-57
2024/04/03 13:28:17;;;;;;;13.88;9.40;;;;;;;;;;5011035;28;20080;-53
2024/04/03 13:30:43;;;;;;;13.77;9.20;;;;;;;;;;5010481;28;20037;-55
2024/04/03 13:33:09;;;;;;;13.80;9.27;;;;;;;;;;5012026;28;20413;-57
2024/04/03 13:35:37;;;;;;;13.77;9.32;;;;;;;;;;5014920;28;20052;-68
2024/04/03 13:38:03;;;;;;;13.77;9.30;;;;;;;;;;5027321;28;20022;-59
2024/04/03 13:40:29;;;;;;;13.75;9.07;;;;;;;;;;4990755;28;20018;-56
2024/04/03 13:42:55;;;;;;;13.27;8.00;;;;;;;;;;4990889;28;20101;-58
2024/04/03 13:45:21;;;;;;;13.35;8.15;;;;;;;;;;4990966;28;20065;-58
2024/04/03 13:47:47;;;;;;;13.50;8.25;;;;;;;;;;4990624;28;20097;-56
2024/04/03 13:50:14;;;;;;;13.40;8.10;;;;;;;;;;4989743;28;20034;-58
2024/04/03 13:52:40;;;;;;;13.50;8.30;;;;;;;;;;4991265;28;20517;-63
2024/04/03 13:55:07;;;;;;;13.40;8.20;;;;;;;;;;4992059;28;20025;-59
2024/04/03 13:57:33;;;;;;;13.32;8.02;;;;;;;;;;4991892;28;20033;-59
2024/04/03 13:59:59;;;;;;;13.25;7.88;;;;;;;;;;4991600;28;20021;-59
2024/04/03 14:02:25;;;;;;;13.25;7.80;;;;;;;;;;4990007;28;20026;-64
2024/04/03 14:04:51;;;;;;;13.07;7.72;;;;;;;;;;4990921;28;20030;-58
2024/04/03 14:07:17;;;;;;;13.15;7.82;;;;;;;;;;4990456;28;20030;-58
2024/04/03 14:09:43;;;;;;;13.23;7.80;;;;;;;;;;4990329;28;20030;-59
2024/04/03 14:12:09;;;;;;;13.38;8.02;;;;;;;;;;4990670;28;20735;-57
2024/04/03 14:14:36;;;;;;;13.18;7.78;;;;;;;;;;4989852;28;20098;-54
2024/04/03 14:17:03;;;;;;;13.05;7.60;;;;;;;;;;4989620;28;20406;-54
2024/04/03 14:19:29;;;;;;;13.05;7.70;;;;;;;;;;4989561;28;20069;-59